createdAt,value
2016-09-22T00:00:19.860Z,1015.16
2016-09-22T00:01:00.399Z,1015.16
2016-09-22T00:01:40.947Z,1015.18
2016-09-22T00:02:21.486Z,1015.19
2016-09-22T00:03:02.028Z,1015.14
2016-09-22T00:03:42.569Z,1015.23
2016-09-22T00:04:23.115Z,1015.18
2016-09-22T00:05:03.651Z,1015.21
2016-09-22T00:05:44.206Z,1015.2
2016-09-22T00:06:24.749Z,1015.24
2016-09-22T00:07:05.300Z,1015.2
2016-09-22T00:07:45.825Z,1015.19
2016-09-22T00:08:26.369Z,1015.23
2016-09-22T00:09:06.911Z,1015.21
2016-09-22T00:09:47.454Z,1015.21
2016-09-22T00:10:27.991Z,1015.2
2016-09-22T00:11:08.538Z,1015.28
2016-09-22T00:11:49.079Z,1015.23
2016-09-22T00:12:29.628Z,1015.24
2016-09-22T00:13:10.267Z,1015.26
2016-09-22T00:13:50.795Z,1015.22
2016-09-22T00:14:31.332Z,1015.23
2016-09-22T00:15:11.870Z,1015.25
2016-09-22T00:15:52.403Z,1015.29
2016-09-22T00:16:32.946Z,1015.29
2016-09-22T00:17:13.494Z,1015.26
2016-09-22T00:17:54.033Z,1015.32
2016-09-22T00:18:34.574Z,1015.29
2016-09-22T00:19:15.114Z,1015.31
2016-09-22T00:19:55.653Z,1015.3
2016-09-22T00:20:36.188Z,1015.31
2016-09-22T00:21:16.732Z,1015.31
2016-09-22T00:21:57.276Z,1015.36
2016-09-22T00:22:37.807Z,1015.29
2016-09-22T00:23:18.349Z,1015.29
2016-09-22T00:23:58.880Z,1015.32
2016-09-22T00:24:39.425Z,1015.32
2016-09-22T00:25:19.957Z,1015.34
2016-09-22T00:26:00.495Z,1015.31
2016-09-22T00:26:41.039Z,1015.26
2016-09-22T00:27:21.583Z,1015.27
2016-09-22T00:28:02.110Z,1015.34
2016-09-22T00:28:42.654Z,1015.28
2016-09-22T00:29:23.198Z,1015.29
2016-09-22T00:30:03.751Z,1015.28
2016-09-22T00:30:44.295Z,1015.24
2016-09-22T00:31:24.832Z,1015.26
2016-09-22T00:32:05.375Z,1015.26
2016-09-22T00:32:45.912Z,1015.23
2016-09-22T00:33:26.453Z,1015.24
2016-09-22T00:34:06.997Z,1015.24
2016-09-22T00:34:47.534Z,1015.27
2016-09-22T00:35:28.074Z,1015.26
2016-09-22T00:36:08.612Z,1015.25
2016-09-22T00:36:49.153Z,1015.28
2016-09-22T00:37:29.691Z,1015.27
2016-09-22T00:38:10.236Z,1015.25
2016-09-22T00:38:50.778Z,1015.26
2016-09-22T00:39:31.309Z,1015.26
2016-09-22T00:40:11.853Z,1015.27
2016-09-22T00:40:52.400Z,1015.26
2016-09-22T00:41:32.926Z,1015.24
2016-09-22T00:42:13.470Z,1015.23
2016-09-22T00:42:54.009Z,1015.24
2016-09-22T00:43:34.552Z,1015.26
2016-09-22T00:44:15.094Z,1015.28
2016-09-22T00:44:55.634Z,1015.2
2016-09-22T00:45:36.173Z,1015.23
2016-09-22T00:46:16.709Z,1015.22
2016-09-22T00:46:57.255Z,1015.21
2016-09-22T00:47:37.792Z,1015.2
2016-09-22T00:48:18.330Z,1015.21
2016-09-22T00:48:58.872Z,1015.17
2016-09-22T00:49:39.416Z,1015.17
2016-09-22T00:50:19.953Z,1015.18
2016-09-22T00:51:00.498Z,1015.17
2016-09-22T00:51:41.021Z,1015.18
2016-09-22T00:52:21.546Z,1015.15
2016-09-22T00:53:02.105Z,1015.18
2016-09-22T00:53:42.633Z,1015.17
2016-09-22T00:54:23.177Z,1015.17
2016-09-22T00:55:03.718Z,1015.17
2016-09-22T00:55:44.258Z,1015.14
2016-09-22T00:56:24.797Z,1015.11
2016-09-22T00:57:05.342Z,1015.15
2016-09-22T00:57:45.893Z,1015.15
2016-09-22T00:58:26.439Z,1015.15
2016-09-22T00:59:06.971Z,1015.13
2016-09-22T00:59:47.507Z,1015.14
2016-09-22T01:00:28.053Z,1015.12
2016-09-22T01:01:08.602Z,1015.13
2016-09-22T01:01:49.140Z,1015.13
2016-09-22T01:02:29.685Z,1015.15
2016-09-22T01:03:10.225Z,1015.12
2016-09-22T01:03:50.777Z,1015.17
2016-09-22T01:04:31.319Z,1015.14
2016-09-22T01:05:11.861Z,1015.16
2016-09-22T01:05:52.400Z,1015.13
2016-09-22T01:06:32.939Z,1015.12
2016-09-22T01:07:13.477Z,1015.13
2016-09-22T01:07:54.012Z,1015.12
2016-09-22T01:08:34.550Z,1015.16
2016-09-22T01:09:15.093Z,1015.15
2016-09-22T01:09:55.637Z,1015.17
2016-09-22T01:10:36.169Z,1015.17
2016-09-22T01:11:16.701Z,1015.18
2016-09-22T01:11:57.233Z,1015.21
2016-09-22T01:12:37.766Z,1015.2
2016-09-22T01:13:18.304Z,1015.24
2016-09-22T01:13:58.846Z,1015.21
2016-09-22T01:14:39.388Z,1015.19
2016-09-22T01:15:19.932Z,1015.2
2016-09-22T01:16:00.471Z,1015.19
2016-09-22T01:16:41.013Z,1015.22
2016-09-22T01:17:21.550Z,1015.26
2016-09-22T01:18:02.089Z,1015.23
2016-09-22T01:18:42.631Z,1015.23
2016-09-22T01:19:23.166Z,1015.25
2016-09-22T01:20:03.709Z,1015.26
2016-09-22T01:20:44.253Z,1015.23
2016-09-22T01:21:24.801Z,1015.2
2016-09-22T01:22:05.347Z,1015.2
2016-09-22T01:22:45.888Z,1015.22
2016-09-22T01:23:26.430Z,1015.27
2016-09-22T01:24:06.963Z,1015.21
2016-09-22T01:24:47.496Z,1015.16
2016-09-22T01:25:28.033Z,1015.23
2016-09-22T01:26:08.577Z,1015.19
2016-09-22T01:26:49.111Z,1015.21
2016-09-22T01:27:29.632Z,1015.18
2016-09-22T01:28:10.182Z,1015.2
2016-09-22T01:28:50.732Z,1015.19
2016-09-22T01:29:31.265Z,1015.22
2016-09-22T01:30:11.791Z,1015.21
2016-09-22T01:30:52.331Z,1015.23
2016-09-22T01:31:32.877Z,1015.22
2016-09-22T01:32:13.406Z,1015.23
2016-09-22T01:32:53.952Z,1015.21
2016-09-22T01:33:34.497Z,1015.22
2016-09-22T01:34:15.040Z,1015.2
2016-09-22T01:34:55.582Z,1015.21
2016-09-22T01:35:36.128Z,1015.24
2016-09-22T01:36:16.664Z,1015.21
2016-09-22T01:36:57.188Z,1015.21
2016-09-22T01:37:37.735Z,1015.23
2016-09-22T01:38:18.276Z,1015.24
2016-09-22T01:38:58.816Z,1015.23
2016-09-22T01:39:39.366Z,1015.24
2016-09-22T01:40:19.898Z,1015.26
2016-09-22T01:41:00.435Z,1015.21
2016-09-22T01:41:40.962Z,1015.23
2016-09-22T01:42:21.503Z,1015.23
2016-09-22T01:43:02.038Z,1015.21
2016-09-22T01:43:42.572Z,1015.26
2016-09-22T01:44:23.111Z,1015.26
2016-09-22T01:45:03.653Z,1015.26
2016-09-22T01:45:44.200Z,1015.25
2016-09-22T01:46:24.740Z,1015.26
2016-09-22T01:47:05.263Z,1015.28
2016-09-22T01:47:45.805Z,1015.25
2016-09-22T01:48:26.350Z,1015.28
2016-09-22T01:49:06.884Z,1015.27
2016-09-22T01:49:47.432Z,1015.28
2016-09-22T01:50:27.967Z,1015.26
2016-09-22T01:51:08.504Z,1015.26
2016-09-22T01:51:49.053Z,1015.28
2016-09-22T01:52:29.596Z,1015.25
2016-09-22T01:53:10.125Z,1015.21
2016-09-22T01:53:50.655Z,1015.23
2016-09-22T01:54:31.199Z,1015.23
2016-09-22T01:55:11.740Z,1015.21
2016-09-22T01:55:52.277Z,1015.21
2016-09-22T01:56:32.819Z,1015.19
2016-09-22T01:57:13.356Z,1015.2
2016-09-22T01:57:53.900Z,1015.2
2016-09-22T01:58:34.434Z,1015.19
2016-09-22T01:59:14.971Z,1015.18
2016-09-22T01:59:55.510Z,1015.2
2016-09-22T02:00:36.044Z,1015.18
2016-09-22T02:01:16.586Z,1015.18
2016-09-22T02:01:57.117Z,1015.21
2016-09-22T02:02:37.661Z,1015.21
2016-09-22T02:03:18.202Z,1015.19
2016-09-22T02:03:58.741Z,1015.22
2016-09-22T02:04:39.276Z,1015.23
2016-09-22T02:05:19.810Z,1015.2
2016-09-22T02:06:00.354Z,1015.21
2016-09-22T02:06:40.900Z,1015.23
2016-09-22T02:07:21.438Z,1015.21
2016-09-22T02:08:01.979Z,1015.24
2016-09-22T02:08:42.526Z,1015.19
2016-09-22T02:09:23.068Z,1015.21
2016-09-22T02:10:03.611Z,1015.18
2016-09-22T02:10:44.139Z,1015.27
2016-09-22T02:11:24.684Z,1015.24
2016-09-22T02:12:05.232Z,1015.27
2016-09-22T02:12:45.771Z,1015.29
2016-09-22T02:13:26.312Z,1015.27
2016-09-22T02:14:06.849Z,1015.26
2016-09-22T02:14:47.396Z,1015.27
2016-09-22T02:15:27.936Z,1015.32
2016-09-22T02:16:08.475Z,1015.26
2016-09-22T02:16:49.017Z,1015.29
2016-09-22T02:17:29.543Z,1015.32
2016-09-22T02:18:10.075Z,1015.31
2016-09-22T02:18:50.616Z,1015.34
2016-09-22T02:19:31.154Z,1015.34
2016-09-22T02:20:11.700Z,1015.39
2016-09-22T02:20:52.241Z,1015.37
2016-09-22T02:21:32.784Z,1015.4
2016-09-22T02:22:13.324Z,1015.38
2016-09-22T02:22:53.870Z,1015.4
2016-09-22T02:23:34.407Z,1015.38
2016-09-22T02:24:14.947Z,1015.41
2016-09-22T02:24:55.482Z,1015.4
2016-09-22T02:25:36.023Z,1015.4
2016-09-22T02:26:16.558Z,1015.38
2016-09-22T02:26:57.102Z,1015.37
2016-09-22T02:27:37.643Z,1015.4
2016-09-22T02:28:18.197Z,1015.37
2016-09-22T02:28:58.737Z,1015.4
2016-09-22T02:29:39.292Z,1015.4
2016-09-22T02:30:19.823Z,1015.38
2016-09-22T02:31:00.356Z,1015.36
2016-09-22T02:31:40.901Z,1015.38
2016-09-22T02:32:21.430Z,1015.39
2016-09-22T02:33:01.980Z,1015.37
2016-09-22T02:33:42.518Z,1015.39
2016-09-22T02:34:23.068Z,1015.38
2016-09-22T02:35:03.623Z,1015.38
2016-09-22T02:35:44.167Z,1015.38
2016-09-22T02:36:24.711Z,1015.36
2016-09-22T02:37:05.254Z,1015.37
2016-09-22T02:37:45.791Z,1015.4
2016-09-22T02:38:26.318Z,1015.44
2016-09-22T02:39:06.860Z,1015.4
2016-09-22T02:39:47.396Z,1015.41
2016-09-22T02:40:27.937Z,1015.42
2016-09-22T02:41:08.477Z,1015.4
2016-09-22T02:41:49.022Z,1015.39
2016-09-22T02:42:29.569Z,1015.43
2016-09-22T02:43:10.119Z,1015.4
2016-09-22T02:43:50.654Z,1015.42
2016-09-22T02:44:31.197Z,1015.42
2016-09-22T02:45:11.743Z,1015.43
2016-09-22T02:45:52.287Z,1015.42
2016-09-22T02:46:32.808Z,1015.43
2016-09-22T02:47:13.356Z,1015.45
2016-09-22T02:47:53.899Z,1015.44
2016-09-22T02:48:34.436Z,1015.43
2016-09-22T02:49:14.981Z,1015.46
2016-09-22T02:49:55.525Z,1015.45
2016-09-22T02:50:36.068Z,1015.46
2016-09-22T02:51:16.614Z,1015.44
2016-09-22T02:51:57.146Z,1015.49
2016-09-22T02:52:37.685Z,1015.46
2016-09-22T02:53:18.233Z,1015.48
2016-09-22T02:53:58.771Z,1015.44
2016-09-22T02:54:39.313Z,1015.49
2016-09-22T02:55:19.852Z,1015.44
2016-09-22T02:56:00.389Z,1015.46
2016-09-22T02:56:40.932Z,1015.46
2016-09-22T02:57:21.475Z,1015.46
2016-09-22T02:58:02.025Z,1015.45
2016-09-22T02:58:42.561Z,1015.43
2016-09-22T02:59:23.096Z,1015.45
2016-09-22T03:00:03.660Z,1015.43
2016-09-22T03:00:44.201Z,1015.45
2016-09-22T03:01:24.740Z,1015.43
2016-09-22T03:02:05.278Z,1015.47
2016-09-22T03:02:45.808Z,1015.42
2016-09-22T03:03:26.360Z,1015.45
2016-09-22T03:04:06.897Z,1015.45
2016-09-22T03:04:47.439Z,1015.43
2016-09-22T03:05:27.981Z,1015.44
2016-09-22T03:06:08.523Z,1015.41
2016-09-22T03:06:49.065Z,1015.42
2016-09-22T03:07:29.586Z,1015.43
2016-09-22T03:08:10.133Z,1015.43
2016-09-22T03:08:50.664Z,1015.42
2016-09-22T03:09:31.213Z,1015.41
2016-09-22T03:10:11.747Z,1015.4
2016-09-22T03:10:52.296Z,1015.43
2016-09-22T03:11:32.849Z,1015.41
2016-09-22T03:12:13.381Z,1015.4
2016-09-22T03:12:53.915Z,1015.42
2016-09-22T03:13:34.450Z,1015.42
2016-09-22T03:14:14.987Z,1015.41
2016-09-22T03:14:55.522Z,1015.41
2016-09-22T03:15:36.067Z,1015.42
2016-09-22T03:16:16.599Z,1015.41
2016-09-22T03:16:57.142Z,1015.43
2016-09-22T03:17:37.687Z,1015.43
2016-09-22T03:18:18.232Z,1015.44
2016-09-22T03:18:58.761Z,1015.41
2016-09-22T03:19:39.292Z,1015.45
2016-09-22T03:20:19.831Z,1015.44
2016-09-22T03:21:00.374Z,1015.41
2016-09-22T03:21:40.922Z,1015.45
2016-09-22T03:22:21.455Z,1015.44
2016-09-22T03:23:02.135Z,1015.42
2016-09-22T03:23:42.661Z,1015.42
2016-09-22T03:24:23.197Z,1015.4
2016-09-22T03:25:03.745Z,1015.4
2016-09-22T03:25:44.278Z,1015.41
2016-09-22T03:26:24.825Z,1015.44
2016-09-22T03:27:05.366Z,1015.42
2016-09-22T03:27:45.903Z,1015.38
2016-09-22T03:28:26.431Z,1015.41
2016-09-22T03:29:06.974Z,1015.42
2016-09-22T03:29:47.515Z,1015.38
2016-09-22T03:30:28.064Z,1015.33
2016-09-22T03:31:08.612Z,1015.39
2016-09-22T03:31:49.166Z,1015.38
2016-09-22T03:32:29.708Z,1015.37
2016-09-22T03:33:10.258Z,1015.34
2016-09-22T03:33:50.805Z,1015.35
2016-09-22T03:34:31.347Z,1015.32
2016-09-22T03:35:11.889Z,1015.33
2016-09-22T03:35:52.423Z,1015.31
2016-09-22T03:36:32.960Z,1015.33
2016-09-22T03:37:13.505Z,1015.32
2016-09-22T03:37:54.041Z,1015.3
2016-09-22T03:38:34.591Z,1015.35
2016-09-22T03:39:15.126Z,1015.33
2016-09-22T03:39:55.672Z,1015.32
2016-09-22T03:40:36.214Z,1015.34
2016-09-22T03:41:16.750Z,1015.36
2016-09-22T03:41:57.281Z,1015.34
2016-09-22T03:42:37.832Z,1015.34
2016-09-22T03:43:18.370Z,1015.39
2016-09-22T03:43:58.911Z,1015.38
2016-09-22T03:44:39.447Z,1015.36
2016-09-22T03:45:19.995Z,1015.37
2016-09-22T03:46:00.541Z,1015.38
2016-09-22T03:46:41.090Z,1015.39
2016-09-22T03:47:21.631Z,1015.4
2016-09-22T03:48:02.173Z,1015.41
2016-09-22T03:48:42.720Z,1015.42
2016-09-22T03:49:23.266Z,1015.4
2016-09-22T03:50:03.809Z,1015.41
2016-09-22T03:50:44.350Z,1015.39
2016-09-22T03:51:24.878Z,1015.41
2016-09-22T03:52:05.421Z,1015.45
2016-09-22T03:52:45.969Z,1015.51
2016-09-22T03:53:26.504Z,1015.47
2016-09-22T03:54:07.039Z,1015.43
2016-09-22T03:54:47.587Z,1015.46
2016-09-22T03:55:28.137Z,1015.44
2016-09-22T03:56:08.678Z,1015.47
2016-09-22T03:56:49.227Z,1015.47
2016-09-22T03:57:29.901Z,1015.48
2016-09-22T03:58:10.445Z,1015.44
2016-09-22T03:58:50.988Z,1015.48
2016-09-22T03:59:31.534Z,1015.47
2016-09-22T04:00:12.077Z,1015.47
2016-09-22T04:00:52.625Z,1015.47
2016-09-22T04:01:33.165Z,1015.48
2016-09-22T04:02:13.698Z,1015.46
2016-09-22T04:02:54.236Z,1015.46
2016-09-22T04:03:34.768Z,1015.45
2016-09-22T04:04:15.338Z,1015.46
2016-09-22T04:04:55.883Z,1015.46
2016-09-22T04:05:36.418Z,1015.44
2016-09-22T04:06:17.074Z,1015.48
2016-09-22T04:06:57.623Z,1015.45
2016-09-22T04:07:38.157Z,1015.41
2016-09-22T04:08:18.704Z,1015.44
2016-09-22T04:08:59.261Z,1015.44
2016-09-22T04:09:39.791Z,1015.45
2016-09-22T04:10:20.345Z,1015.45
2016-09-22T04:11:00.871Z,1015.44
2016-09-22T04:11:41.412Z,1015.44
2016-09-22T04:12:21.949Z,1015.44
2016-09-22T04:13:02.488Z,1015.44
2016-09-22T04:13:43.030Z,1015.41
2016-09-22T04:14:23.568Z,1015.43
2016-09-22T04:15:04.168Z,1015.45
2016-09-22T04:15:44.696Z,1015.42
2016-09-22T04:16:25.243Z,1015.46
2016-09-22T04:17:05.780Z,1015.42
2016-09-22T04:17:46.322Z,1015.4
2016-09-22T04:18:26.864Z,1015.42
2016-09-22T04:19:07.406Z,1015.41
2016-09-22T04:19:48.012Z,1015.43
2016-09-22T04:20:28.535Z,1015.46
2016-09-22T04:21:09.076Z,1015.45
2016-09-22T04:21:49.619Z,1015.46
2016-09-22T04:22:30.171Z,1015.47
2016-09-22T04:23:10.709Z,1015.5
2016-09-22T04:23:51.247Z,1015.5
2016-09-22T04:24:31.794Z,1015.51
2016-09-22T04:25:12.334Z,1015.5
2016-09-22T04:25:52.871Z,1015.5
2016-09-22T04:26:33.411Z,1015.49
2016-09-22T04:27:13.957Z,1015.51
2016-09-22T04:27:54.488Z,1015.53
2016-09-22T04:28:35.024Z,1015.54
2016-09-22T04:29:15.565Z,1015.5
2016-09-22T04:29:56.149Z,1015.52
2016-09-22T04:30:36.679Z,1015.51
2016-09-22T04:31:17.216Z,1015.53
2016-09-22T04:31:57.761Z,1015.51
2016-09-22T04:32:38.417Z,1015.53
2016-09-22T04:33:18.909Z,1015.55
2016-09-22T04:33:59.485Z,1015.5
2016-09-22T04:34:40.052Z,1015.52
2016-09-22T04:35:20.514Z,1015.52
2016-09-22T04:36:01.060Z,1015.51
2016-09-22T04:36:41.602Z,1015.5
2016-09-22T04:37:22.173Z,1015.52
2016-09-22T04:38:02.732Z,1015.52
2016-09-22T04:38:43.275Z,1015.49
2016-09-22T04:39:23.819Z,1015.48
2016-09-22T04:40:04.359Z,1015.51
2016-09-22T04:40:44.904Z,1015.47
2016-09-22T04:41:25.450Z,1015.43
2016-09-22T04:42:05.991Z,1015.47
2016-09-22T04:42:46.529Z,1015.45
2016-09-22T04:43:27.071Z,1015.45
2016-09-22T04:44:07.602Z,1015.47
2016-09-22T04:44:48.143Z,1015.46
2016-09-22T04:45:28.687Z,1015.44
2016-09-22T04:46:09.229Z,1015.4
2016-09-22T04:46:49.767Z,1015.45
2016-09-22T04:47:30.308Z,1015.41
2016-09-22T04:48:10.846Z,1015.41
2016-09-22T04:48:51.382Z,1015.37
2016-09-22T04:49:31.922Z,1015.39
2016-09-22T04:50:12.461Z,1015.41
2016-09-22T04:50:53.011Z,1015.41
2016-09-22T04:51:33.548Z,1015.38
2016-09-22T04:52:14.102Z,1015.41
2016-09-22T04:52:54.641Z,1015.42
2016-09-22T04:53:35.182Z,1015.41
2016-09-22T04:54:15.725Z,1015.42
2016-09-22T04:54:56.267Z,1015.44
2016-09-22T04:55:36.811Z,1015.44
2016-09-22T04:56:17.350Z,1015.44
2016-09-22T04:56:57.888Z,1015.46
2016-09-22T04:57:38.434Z,1015.42
2016-09-22T04:58:18.971Z,1015.49
2016-09-22T04:58:59.527Z,1015.46
2016-09-22T04:59:40.051Z,1015.51
2016-09-22T05:00:20.596Z,1015.49
2016-09-22T05:01:01.140Z,1015.47
2016-09-22T05:01:41.687Z,1015.51
2016-09-22T05:02:22.229Z,1015.5
2016-09-22T05:03:02.774Z,1015.53
2016-09-22T05:03:43.309Z,1015.52
2016-09-22T05:04:23.847Z,1015.53
2016-09-22T05:05:04.402Z,1015.54
2016-09-22T05:05:44.918Z,1015.51
2016-09-22T05:06:25.458Z,1015.54
2016-09-22T05:07:06.005Z,1015.55
2016-09-22T05:07:46.547Z,1015.52
2016-09-22T05:08:27.088Z,1015.52
2016-09-22T05:09:07.632Z,1015.51
2016-09-22T05:09:48.177Z,1015.46
2016-09-22T05:10:28.725Z,1015.49
2016-09-22T05:11:09.269Z,1015.48
2016-09-22T05:11:49.801Z,1015.46
2016-09-22T05:12:30.351Z,1015.48
2016-09-22T05:13:10.887Z,1015.48
2016-09-22T05:13:51.433Z,1015.46
2016-09-22T05:14:31.976Z,1015.47
2016-09-22T05:15:12.517Z,1015.49
2016-09-22T05:15:53.060Z,1015.47
2016-09-22T05:16:33.594Z,1015.45
2016-09-22T05:17:14.121Z,1015.49
2016-09-22T05:17:54.657Z,1015.49
2016-09-22T05:18:35.186Z,1015.52
2016-09-22T05:19:15.726Z,1015.56
2016-09-22T05:19:56.268Z,1015.51
2016-09-22T05:20:36.816Z,1015.54
2016-09-22T05:21:17.373Z,1015.54
2016-09-22T05:21:57.918Z,1015.52
2016-09-22T05:22:38.481Z,1015.5
2016-09-22T05:23:19.023Z,1015.54
2016-09-22T05:23:59.567Z,1015.51
2016-09-22T05:24:40.111Z,1015.52
2016-09-22T05:25:20.653Z,1015.51
2016-09-22T05:26:01.183Z,1015.51
2016-09-22T05:26:41.720Z,1015.52
2016-09-22T05:27:22.265Z,1015.48
2016-09-22T05:28:02.799Z,1015.52
2016-09-22T05:28:43.346Z,1015.53
2016-09-22T05:29:23.903Z,1015.51
2016-09-22T05:30:04.443Z,1015.5
2016-09-22T05:30:44.985Z,1015.51
2016-09-22T05:31:25.531Z,1015.49
2016-09-22T05:32:06.075Z,1015.51
2016-09-22T05:32:46.622Z,1015.5
2016-09-22T05:33:27.164Z,1015.51
2016-09-22T05:34:07.705Z,1015.54
2016-09-22T05:34:48.241Z,1015.54
2016-09-22T05:35:28.758Z,1015.58
2016-09-22T05:36:09.298Z,1015.55
2016-09-22T05:36:49.846Z,1015.55
2016-09-22T05:37:30.388Z,1015.57
2016-09-22T05:38:10.929Z,1015.57
2016-09-22T05:38:51.487Z,1015.55
2016-09-22T05:39:32.030Z,1015.56
2016-09-22T05:40:12.569Z,1015.58
2016-09-22T05:40:53.111Z,1015.51
2016-09-22T05:41:33.648Z,1015.55
2016-09-22T05:42:14.186Z,1015.55
2016-09-22T05:42:54.716Z,1015.56
2016-09-22T05:43:35.257Z,1015.55
2016-09-22T05:44:15.795Z,1015.56
2016-09-22T05:44:56.338Z,1015.55
2016-09-22T05:45:36.886Z,1015.57
2016-09-22T05:46:17.436Z,1015.61
2016-09-22T05:46:57.975Z,1015.62
2016-09-22T05:47:38.503Z,1015.55
2016-09-22T05:48:19.036Z,1015.61
2016-09-22T05:48:59.567Z,1015.61
2016-09-22T05:49:40.122Z,1015.59
2016-09-22T05:50:20.657Z,1015.61
2016-09-22T05:51:01.199Z,1015.6
2016-09-22T05:51:41.741Z,1015.58
2016-09-22T05:52:22.283Z,1015.58
2016-09-22T05:53:02.796Z,1015.59
2016-09-22T05:53:43.322Z,1015.6
2016-09-22T05:54:23.872Z,1015.63
2016-09-22T05:55:04.407Z,1015.61
2016-09-22T05:55:44.953Z,1015.61
2016-09-22T05:56:25.511Z,1015.63
2016-09-22T05:57:06.045Z,1015.67
2016-09-22T05:57:46.588Z,1015.64
2016-09-22T05:58:27.135Z,1015.61
2016-09-22T05:59:07.673Z,1015.69
2016-09-22T05:59:48.200Z,1015.67
2016-09-22T06:00:28.727Z,1015.65
2016-09-22T06:01:09.271Z,1015.7
2016-09-22T06:01:49.809Z,1015.71
2016-09-22T06:02:30.343Z,1015.7
2016-09-22T06:03:10.889Z,1015.71
2016-09-22T06:03:51.429Z,1015.72
2016-09-22T06:04:31.953Z,1015.73
2016-09-22T06:05:12.493Z,1015.74
2016-09-22T06:05:53.036Z,1015.73
2016-09-22T06:06:33.572Z,1015.74
2016-09-22T06:07:14.120Z,1015.78
2016-09-22T06:07:54.664Z,1015.8
2016-09-22T06:08:35.206Z,1015.74
2016-09-22T06:09:15.748Z,1015.78
2016-09-22T06:09:56.300Z,1015.79
2016-09-22T06:10:36.845Z,1015.8
2016-09-22T06:11:17.384Z,1015.79
2016-09-22T06:11:57.927Z,1015.78
2016-09-22T06:12:38.458Z,1015.81
2016-09-22T06:13:18.991Z,1015.79
2016-09-22T06:13:59.532Z,1015.81
2016-09-22T06:14:40.077Z,1015.82
2016-09-22T06:15:20.620Z,1015.83
2016-09-22T06:16:01.154Z,1015.85
2016-09-22T06:16:41.706Z,1015.87
2016-09-22T06:17:22.253Z,1015.9
2016-09-22T06:19:36.469Z,1015.93
2016-09-22T06:20:17.005Z,1015.9
2016-09-22T06:20:57.552Z,1015.94
2016-09-22T06:21:38.086Z,1015.93
2016-09-22T06:22:18.625Z,1015.9
2016-09-22T06:22:59.166Z,1015.94
2016-09-22T06:23:39.699Z,1015.94
2016-09-22T06:24:20.242Z,1015.96
2016-09-22T06:25:00.752Z,1015.94
2016-09-22T06:25:41.286Z,1015.93
2016-09-22T06:26:21.827Z,1015.94
2016-09-22T06:27:02.377Z,1015.95
2016-09-22T06:27:42.919Z,1015.95
2016-09-22T06:28:23.450Z,1015.95
2016-09-22T06:29:03.987Z,1015.97
2016-09-22T06:29:44.519Z,1015.98
2016-09-22T06:30:25.058Z,1016.03
2016-09-22T06:31:05.604Z,1016.01
2016-09-22T06:31:46.137Z,1016
2016-09-22T06:32:26.688Z,1016
2016-09-22T06:33:07.207Z,1016.05
2016-09-22T06:33:47.728Z,1016.05
2016-09-22T06:34:28.252Z,1016.05
2016-09-22T06:35:08.787Z,1016.04
2016-09-22T06:35:49.335Z,1016.07
2016-09-22T06:36:29.890Z,1016.07
2016-09-22T06:37:10.426Z,1016.07
2016-09-22T06:37:50.967Z,1016.05
2016-09-22T06:38:31.514Z,1016.08
2016-09-22T06:39:12.039Z,1016.07
2016-09-22T06:39:52.578Z,1016.08
2016-09-22T06:40:33.117Z,1016.07
2016-09-22T06:41:13.648Z,1016.09
2016-09-22T06:41:54.220Z,1016.11
2016-09-22T06:42:34.799Z,1016.08
2016-09-22T06:43:15.333Z,1016.09
2016-09-22T06:43:55.868Z,1016.08
2016-09-22T06:44:36.410Z,1016.14
2016-09-22T06:45:16.946Z,1016.13
2016-09-22T06:45:57.494Z,1016.13
2016-09-22T06:46:38.042Z,1016.16
2016-09-22T06:47:18.581Z,1016.17
2016-09-22T06:47:59.123Z,1016.17
2016-09-22T06:48:39.654Z,1016.2
2016-09-22T06:49:20.182Z,1016.22
2016-09-22T06:50:00.706Z,1016.19
2016-09-22T06:50:41.251Z,1016.17
2016-09-22T06:51:21.799Z,1016.18
2016-09-22T06:52:02.341Z,1016.18
2016-09-22T06:52:42.889Z,1016.21
2016-09-22T06:53:23.428Z,1016.23
2016-09-22T06:54:03.972Z,1016.23
2016-09-22T06:54:44.527Z,1016.23
2016-09-22T06:55:25.065Z,1016.22
2016-09-22T06:56:05.613Z,1016.25
2016-09-22T06:56:46.143Z,1016.29
2016-09-22T06:57:26.676Z,1016.23
2016-09-22T06:58:07.215Z,1016.27
2016-09-22T06:58:47.757Z,1016.29
2016-09-22T06:59:28.295Z,1016.34
2016-09-22T07:00:08.834Z,1016.3
2016-09-22T07:00:49.375Z,1016.28
2016-09-22T07:01:29.903Z,1016.35
2016-09-22T07:02:10.446Z,1016.36
2016-09-22T07:02:50.977Z,1016.36
2016-09-22T07:03:31.515Z,1016.4
2016-09-22T07:04:12.058Z,1016.4
2016-09-22T07:04:52.597Z,1016.37
2016-09-22T07:05:33.137Z,1016.4
2016-09-22T07:06:13.681Z,1016.35
2016-09-22T07:06:54.215Z,1016.37
2016-09-22T07:07:34.744Z,1016.34
2016-09-22T07:08:15.375Z,1016.36
2016-09-22T07:08:55.906Z,1016.43
2016-09-22T07:09:36.444Z,1016.38
2016-09-22T07:10:16.960Z,1016.4
2016-09-22T07:10:57.506Z,1016.41
2016-09-22T07:11:38.054Z,1016.38
2016-09-22T07:12:18.597Z,1016.39
2016-09-22T07:12:59.143Z,1016.38
2016-09-22T07:13:39.687Z,1016.42
2016-09-22T07:14:20.235Z,1016.39
2016-09-22T07:15:00.770Z,1016.39
2016-09-22T07:15:41.321Z,1016.39
2016-09-22T07:16:21.871Z,1016.35
2016-09-22T07:17:02.415Z,1016.36
2016-09-22T07:17:42.958Z,1016.34
2016-09-22T07:18:23.500Z,1016.34
2016-09-22T07:19:04.033Z,1016.36
2016-09-22T07:19:44.566Z,1016.36
2016-09-22T07:20:25.098Z,1016.34
2016-09-22T07:21:05.629Z,1016.4
2016-09-22T07:21:46.176Z,1016.4
2016-09-22T07:22:26.719Z,1016.38
2016-09-22T07:23:07.269Z,1016.39
2016-09-22T07:23:47.828Z,1016.39
2016-09-22T07:24:28.371Z,1016.37
2016-09-22T07:25:08.931Z,1016.41
2016-09-22T07:25:49.474Z,1016.39
2016-09-22T07:26:30.011Z,1016.41
2016-09-22T07:27:10.544Z,1016.43
2016-09-22T07:27:51.083Z,1016.4
2016-09-22T07:28:31.622Z,1016.41
2016-09-22T07:29:12.163Z,1016.42
2016-09-22T07:29:52.696Z,1016.38
2016-09-22T07:30:33.237Z,1016.38
2016-09-22T07:31:13.779Z,1016.39
2016-09-22T07:31:54.319Z,1016.36
2016-09-22T07:32:34.866Z,1016.4
2016-09-22T07:33:15.381Z,1016.36
2016-09-22T07:33:55.922Z,1016.35
2016-09-22T07:34:36.449Z,1016.37
2016-09-22T07:35:16.990Z,1016.33
2016-09-22T07:35:57.549Z,1016.36
2016-09-22T07:36:38.071Z,1016.35
2016-09-22T07:37:18.618Z,1016.35
2016-09-22T07:37:59.144Z,1016.36
2016-09-22T07:38:39.680Z,1016.34
2016-09-22T07:39:20.228Z,1016.37
2016-09-22T07:40:00.748Z,1016.34
2016-09-22T07:40:41.268Z,1016.33
2016-09-22T07:41:21.801Z,1016.35
2016-09-22T07:42:02.337Z,1016.31
2016-09-22T07:42:42.877Z,1016.32
2016-09-22T07:43:23.414Z,1016.36
2016-09-22T07:44:03.954Z,1016.4
2016-09-22T07:44:44.512Z,1016.34
2016-09-22T07:45:25.054Z,1016.38
2016-09-22T07:46:05.603Z,1016.36
2016-09-22T07:46:46.143Z,1016.35
2016-09-22T07:47:26.680Z,1016.33
2016-09-22T07:48:07.216Z,1016.32
2016-09-22T07:48:47.752Z,1016.33
2016-09-22T07:49:28.296Z,1016.33
2016-09-22T07:50:08.839Z,1016.37
2016-09-22T07:50:49.374Z,1016.34
2016-09-22T07:51:29.914Z,1016.35
2016-09-22T07:52:10.465Z,1016.36
2016-09-22T07:52:51.008Z,1016.32
2016-09-22T07:53:31.560Z,1016.35
2016-09-22T07:54:12.104Z,1016.34
2016-09-22T07:54:52.651Z,1016.34
2016-09-22T07:55:33.188Z,1016.36
2016-09-22T07:56:13.728Z,1016.33
2016-09-22T07:56:54.265Z,1016.32
2016-09-22T07:57:34.795Z,1016.3
2016-09-22T07:58:15.340Z,1016.29
2016-09-22T07:58:55.888Z,1016.37
2016-09-22T07:59:36.414Z,1016.31
2016-09-22T08:00:16.953Z,1016.3
2016-09-22T08:00:57.494Z,1016.35
2016-09-22T08:01:38.043Z,1016.27
2016-09-22T08:02:18.593Z,1016.3
2016-09-22T08:02:59.141Z,1016.32
2016-09-22T08:03:39.687Z,1016.33
2016-09-22T08:04:20.224Z,1016.37
2016-09-22T08:05:00.759Z,1016.33
2016-09-22T08:05:41.288Z,1016.34
2016-09-22T08:06:21.824Z,1016.3
2016-09-22T08:07:02.359Z,1016.31
2016-09-22T08:07:42.902Z,1016.35
2016-09-22T08:08:23.453Z,1016.38
2016-09-22T08:09:04.001Z,1016.39
2016-09-22T08:09:44.556Z,1016.35
2016-09-22T08:10:25.099Z,1016.33
2016-09-22T08:11:05.617Z,1016.38
2016-09-22T08:11:46.147Z,1016.39
2016-09-22T08:12:26.684Z,1016.37
2016-09-22T08:13:07.228Z,1016.4
2016-09-22T08:13:47.757Z,1016.38